Airfield :
LOGIN :

Register | Disclaimer

   EN    FR    IT 

 










Legend :    VFR   Marginal VFR   IFR   Intensive IFR   Very Intensive IFR
Visi :
Ceiling :
>= 8 km
>= 3000ft
5 to 8 km
1000 to 3000 ft
1500m to 5 km
500 to 1000 ft
800 to 1500m
200 to 500 ft
< 800m
< 200 ft
Symbols :   Thunderstorms  Fog  Heavy snow  Heavy precipitations  Wind > 20 kt
SIGMETs :     Misc.  Thunderstorms  Icing  Turbulence  Mountain Waves  Volcanic Ashes







- Airport Elevation : 270 ft
- IATA code : OXF
- Download approach charts


EGTK - Oxford (Kidlington)

CURRENT METAR :
  • 180820Z 17003KT CAVOK 15/12 Q1015

EXPIRED METARs :
  • 180720Z 18001KT CAVOK 13/12 Q1015
  • 180650Z 17002KT CAVOK 12/12 Q1015

TAF TAF EGTK
Valid from the 18 at 07:00 until the 18 at 15:00 UTC


180728Z 1807/1815 VRB03KT 9999 SCT035
PROB40
TEMPO 1810/1815 6000 RA BKN014
No reported NOTAMs for that airfield.
1 SIGMET reported for the London FIR (EGTT) :
 
Embedded thunderstorms
EGTT SIGMET 01 VALID 180732/181000 EGRR
EGTT LONDON FIR EMBD TS FCST WI N5053 W00010 - N5035 E00009 - N5000 W00102 - N5000 W00159 - N5053 W00010 TOP FL300 MOV NNE 20KT NC=



MET'MAP, your aeronautical weather chart ! - Copyright ORBIFLY December 2007 - Disclaimer

ORBIFLY MET'MAP TEAM :

Programming & Development : Alexandra Zaïnal
Concept & Development : Baudouin d'Aumeries
Co-Development & Prog : Marc-Olivier Méhu
Technical & hardware support : Manuel Goepfert

Contact : metmap@orbifly.com




SOURCES & CREDITS :

   NOAA